Time;durP1;ratioP1;P1;durP2;ratioP2;P2;SDS_P1;SDS_P2;PMS_P1;PMS_P2;Temp;Humidity;BMP_temperature;BMP_pressure;BME280_temperature;BME280_humidity;BME280_pressure;Samples;Min_cycle;Max_cycle;Signal;HPM_P1;HPM_P2
2021/10/02 00:44:40;;;;;;;21.15;11.55;;;;;;;;;;5119461;28;20024;-82
2021/10/02 00:47:14;;;;;;;16.10;10.63;;;;;;;;;;5101181;28;20023;-80
2021/10/02 00:49:42;;;;;;;15.90;10.68;;;;;;;;;;5100536;28;20048;-80
2021/10/02 00:52:09;;;;;;;15.82;10.85;;;;;;;;;;5119275;28;20031;-78
2021/10/02 00:54:35;;;;;;;23.90;10.85;;;;;;;;;;5118964;28;20034;-79
2021/10/02 00:57:01;;;;;;;16.33;11.05;;;;;;;;;;5118977;28;20066;-80
2021/10/02 00:59:30;;;;;;;18.08;10.02;;;;;;;;;;5118689;28;20028;-80
2021/10/02 01:02:03;;;;;;;17.45;11.02;;;;;;;;;;5118853;28;20068;-78
2021/10/02 01:04:44;;;;;;;16.40;10.60;;;;;;;;;;5118104;28;20092;-78
2021/10/02 01:07:15;;;;;;;20.27;11.30;;;;;;;;;;5118579;28;20020;-79
2021/10/02 01:09:58;;;;;;;17.60;11.00;;;;;;;;;;5118608;28;20424;-79
2021/10/02 01:12:24;;;;;;;17.73;10.93;;;;;;;;;;5118649;28;20024;-79
2021/10/02 01:15:01;;;;;;;19.08;11.27;;;;;;;;;;5118478;28;20020;-79
2021/10/02 01:17:39;;;;;;;19.75;10.77;;;;;;;;;;5118689;28;20053;-79
2021/10/02 01:20:10;;;;;;;20.08;11.15;;;;;;;;;;5118245;28;20056;-79
2021/10/02 01:22:55;;;;;;;16.30;10.75;;;;;;;;;;5118372;28;20042;-79
2021/10/02 01:25:21;;;;;;;15.95;11.02;;;;;;;;;;5118204;28;20030;-79
2021/10/02 01:27:52;;;;;;;20.52;11.85;;;;;;;;;;5100079;28;20106;-79
2021/10/02 01:30:24;;;;;;;17.88;10.52;;;;;;;;;;5118242;28;20312;-79
2021/10/02 01:32:58;;;;;;;15.20;11.32;;;;;;;;;;5118361;28;20020;-80
2021/10/02 01:35:51;;;;;;;20.38;11.55;;;;;;;;;;5118218;28;20043;-80
2021/10/02 01:49:20;;;;;;;20.42;11.77;;;;;;;;;;5055792;28;20120;-80
2021/10/02 01:51:47;;;;;;;18.02;11.65;;;;;;;;;;5055407;28;20147;-79
2021/10/02 01:54:15;;;;;;;17.83;11.70;;;;;;;;;;5055381;28;20047;-79
2021/10/02 01:56:41;;;;;;;17.20;11.15;;;;;;;;;;5038796;28;20403;-79
2021/10/02 01:59:10;;;;;;;19.17;11.77;;;;;;;;;;5055268;28;20124;-79
2021/10/02 02:01:38;;;;;;;17.70;12.35;;;;;;;;;;5055207;28;20029;-79
2021/10/02 02:04:04;;;;;;;17.70;11.25;;;;;;;;;;5055250;28;20366;-79
2021/10/02 02:06:30;;;;;;;21.60;12.20;;;;;;;;;;5055082;28;20342;-79
2021/10/02 02:08:57;;;;;;;16.77;11.82;;;;;;;;;;5055097;28;20029;-79
2021/10/02 02:11:24;;;;;;;16.67;11.55;;;;;;;;;;5054986;28;20053;-79
2021/10/02 02:13:52;;;;;;;17.27;11.30;;;;;;;;;;5055066;28;20021;-80
2021/10/02 02:16:18;;;;;;;20.08;11.77;;;;;;;;;;5054902;28;20025;-80
2021/10/02 02:18:44;;;;;;;18.27;11.60;;;;;;;;;;5086132;28;20040;-80
2021/10/02 02:21:12;;;;;;;17.33;12.50;;;;;;;;;;5117719;28;20019;-79
2021/10/02 02:23:38;;;;;;;20.55;11.63;;;;;;;;;;5117431;28;20023;-79
2021/10/02 02:26:05;;;;;;;17.80;12.05;;;;;;;;;;5117333;28;20309;-79
2021/10/02 02:28:41;;;;;;;17.35;11.68;;;;;;;;;;5117279;28;20020;-80
2021/10/02 02:31:07;;;;;;;16.15;11.82;;;;;;;;;;5117623;28;20048;-80
2021/10/02 02:33:34;;;;;;;20.35;12.55;;;;;;;;;;5117437;28;20020;-80
2021/10/02 02:36:01;;;;;;;20.25;11.93;;;;;;;;;;5117469;28;20035;-80
2021/10/02 02:38:27;;;;;;;18.42;12.23;;;;;;;;;;5117002;28;20024;-80
2021/10/02 02:40:53;;;;;;;19.60;11.65;;;;;;;;;;5117160;28;20028;-79
2021/10/02 02:43:20;;;;;;;18.25;12.45;;;;;;;;;;5099228;28;20024;-80
2021/10/02 02:46:12;;;;;;;17.08;11.55;;;;;;;;;;5117556;28;20024;-80
2021/10/02 02:48:40;;;;;;;21.42;12.75;;;;;;;;;;5095493;28;20126;-78
2021/10/02 02:51:10;;;;;;;17.20;12.27;;;;;;;;;;5117285;28;20028;-78
2021/10/02 02:53:58;;;;;;;23.17;12.18;;;;;;;;;;5117024;28;20313;-78
2021/10/02 02:56:34;;;;;;;17.42;11.77;;;;;;;;;;5117388;28;20034;-78
2021/10/02 02:59:16;;;;;;;21.10;12.68;;;;;;;;;;5116995;28;20427;-80
2021/10/02 03:01:42;;;;;;;20.75;12.07;;;;;;;;;;5117445;28;20023;-80
2021/10/02 03:04:12;;;;;;;19.23;11.68;;;;;;;;;;5117238;28;20435;-80
2021/10/02 03:06:42;;;;;;;14.70;11.55;;;;;;;;;;5116929;28;20030;-79
2021/10/02 03:09:09;;;;;;;17.55;11.70;;;;;;;;;;5117198;28;20028;-79
2021/10/02 03:11:35;;;;;;;15.68;11.43;;;;;;;;;;5116998;28;20328;-79
2021/10/02 03:14:02;;;;;;;19.05;11.50;;;;;;;;;;5117053;28;20027;-79
2021/10/02 03:16:32;;;;;;;16.42;10.73;;;;;;;;;;5116971;28;20032;-79
2021/10/02 03:19:02;;;;;;;17.60;11.30;;;;;;;;;;5116615;28;20063;-79
2021/10/02 03:21:28;;;;;;;15.07;10.48;;;;;;;;;;5117174;28;20051;-78
2021/10/02 03:23:54;;;;;;;19.00;10.60;;;;;;;;;;5116813;28;20436;-79
2021/10/02 03:26:21;;;;;;;17.17;11.30;;;;;;;;;;5117241;28;20027;-79
2021/10/02 03:28:49;;;;;;;15.55;10.52;;;;;;;;;;5120510;28;20020;-79
2021/10/02 03:31:16;;;;;;;20.33;10.48;;;;;;;;;;5120527;28;20317;-80
2021/10/02 03:33:42;;;;;;;16.73;10.32;;;;;;;;;;5120463;28;20401;-79
2021/10/02 03:36:08;;;;;;;18.92;10.30;;;;;;;;;;5120447;28;20425;-79
2021/10/02 03:38:34;;;;;;;14.75;10.70;;;;;;;;;;5120600;28;20080;-79
2021/10/02 03:41:01;;;;;;;14.77;10.07;;;;;;;;;;5120392;28;20062;-80
2021/10/02 03:43:31;;;;;;;17.80;9.80;;;;;;;;;;5120308;28;20028;-80
2021/10/02 03:45:57;;;;;;;16.70;9.98;;;;;;;;;;5102256;28;20138;-79
2021/10/02 03:48:23;;;;;;;16.73;9.77;;;;;;;;;;5120188;28;20026;-80
2021/10/02 03:50:49;;;;;;;19.70;10.15;;;;;;;;;;5120167;28;20110;-80
2021/10/02 03:53:15;;;;;;;13.80;9.40;;;;;;;;;;5119970;28;20028;-80
2021/10/02 03:55:41;;;;;;;15.90;9.90;;;;;;;;;;5120211;28;20023;-80
2021/10/02 03:58:07;;;;;;;14.90;10.35;;;;;;;;;;5120155;28;20028;-80
2021/10/02 04:00:33;;;;;;;16.98;10.43;;;;;;;;;;5119840;28;20055;-81
2021/10/02 04:02:59;;;;;;;14.75;9.35;;;;;;;;;;5119946;28;20034;-81
2021/10/02 04:05:26;;;;;;;15.77;8.90;;;;;;;;;;5101834;28;20035;-81
2021/10/02 04:07:52;;;;;;;16.88;10.05;;;;;;;;;;5119831;28;20372;-79
2021/10/02 04:10:18;;;;;;;15.73;9.50;;;;;;;;;;5119794;28;20424;-79
2021/10/02 04:12:44;;;;;;;14.35;9.57;;;;;;;;;;5119823;28;20035;-79
2021/10/02 04:15:10;;;;;;;15.95;9.25;;;;;;;;;;5120028;28;20032;-79
2021/10/02 04:17:36;;;;;;;13.60;8.68;;;;;;;;;;5101912;28;20317;-80
2021/10/02 04:20:04;;;;;;;14.73;9.07;;;;;;;;;;5119493;28;20054;-80
2021/10/02 04:22:30;;;;;;;16.30;8.70;;;;;;;;;;5119573;28;20032;-79
2021/10/02 04:24:57;;;;;;;16.30;9.02;;;;;;;;;;5101487;28;20016;-79
2021/10/02 04:27:23;;;;;;;23.67;9.45;;;;;;;;;;5119397;28;20024;-79
2021/10/02 04:29:49;;;;;;;14.63;8.88;;;;;;;;;;5119435;28;20024;-79
2021/10/02 04:32:15;;;;;;;15.13;8.52;;;;;;;;;;5101288;28;20110;-80
2021/10/02 04:34:41;;;;;;;15.18;9.50;;;;;;;;;;5119379;28;20023;-80
2021/10/02 04:37:07;;;;;;;15.43;9.32;;;;;;;;;;5119104;28;20038;-80
2021/10/02 04:39:33;;;;;;;15.45;9.23;;;;;;;;;;5119126;28;20034;-79
2021/10/02 04:42:00;;;;;;;21.13;9.30;;;;;;;;;;5119260;28;20020;-79
2021/10/02 04:44:26;;;;;;;16.13;9.50;;;;;;;;;;5119192;28;20028;-80
2021/10/02 04:46:52;;;;;;;12.73;9.40;;;;;;;;;;5101016;28;20066;-79
2021/10/02 04:49:18;;;;;;;14.23;9.68;;;;;;;;;;5119108;28;20051;-80
2021/10/02 04:51:44;;;;;;;14.10;9.35;;;;;;;;;;5119237;28;20035;-80
2021/10/02 04:54:11;;;;;;;15.90;9.60;;;;;;;;;;5119137;28;20031;-80
2021/10/02 04:56:37;;;;;;;15.80;9.10;;;;;;;;;;5119051;28;20050;-80
2021/10/02 04:59:03;;;;;;;15.30;9.10;;;;;;;;;;5118929;28;20351;-79
2021/10/02 05:01:29;;;;;;;16.13;9.20;;;;;;;;;;5121147;27;20027;-79
2021/10/02 05:03:56;;;;;;;14.02;9.18;;;;;;;;;;5121201;27;20412;-80
2021/10/02 05:06:22;;;;;;;17.05;9.45;;;;;;;;;;5139227;27;20023;-81
2021/10/02 05:08:48;;;;;;;19.60;10.40;;;;;;;;;;5139106;27;20023;-79
2021/10/02 05:11:14;;;;;;;20.13;9.52;;;;;;;;;;5120903;27;20306;-80
2021/10/02 05:13:41;;;;;;;18.25;9.32;;;;;;;;;;5139136;27;20056;-80
2021/10/02 05:16:07;;;;;;;17.30;10.30;;;;;;;;;;5138976;27;20023;-79
2021/10/02 05:18:33;;;;;;;18.23;10.68;;;;;;;;;;5138731;27;20023;-80
2021/10/02 05:20:59;;;;;;;19.98;9.40;;;;;;;;;;5138993;27;20324;-80
2021/10/02 05:23:25;;;;;;;16.33;9.13;;;;;;;;;;5138899;27;20034;-80
2021/10/02 05:25:53;;;;;;;22.15;9.10;;;;;;;;;;5138951;27;20019;-80
2021/10/02 05:28:19;;;;;;;15.00;9.65;;;;;;;;;;5138869;27;20027;-80
2021/10/02 05:30:46;;;;;;;15.93;8.85;;;;;;;;;;5119941;27;20042;-80
2021/10/02 05:33:12;;;;;;;20.30;9.57;;;;;;;;;;5138742;27;20015;-79
2021/10/02 05:35:38;;;;;;;13.68;9.30;;;;;;;;;;5138735;27;20030;-79
2021/10/02 05:38:04;;;;;;;15.45;9.73;;;;;;;;;;5138596;27;20114;-80
2021/10/02 05:40:30;;;;;;;16.48;9.20;;;;;;;;;;5104941;27;20024;-82
2021/10/02 05:42:56;;;;;;;17.67;9.00;;;;;;;;;;5100416;28;20024;-80
2021/10/02 05:45:22;;;;;;;20.70;9.68;;;;;;;;;;5117687;28;20027;-80
2021/10/02 05:47:48;;;;;;;20.35;9.93;;;;;;;;;;5118087;28;20048;-79
2021/10/02 05:50:14;;;;;;;19.70;9.13;;;;;;;;;;5117491;28;20048;-80
2021/10/02 05:52:40;;;;;;;18.77;9.98;;;;;;;;;;5099773;28;20024;-79
2021/10/02 05:55:07;;;;;;;19.40;10.70;;;;;;;;;;5115259;28;20020;-82
2021/10/02 05:57:33;;;;;;;31.85;16.70;;;;;;;;;;5097551;28;20027;-80
2021/10/02 05:59:59;;;;;;;24.27;12.35;;;;;;;;;;5097482;28;20028;-79
2021/10/02 06:02:26;;;;;;;19.50;10.57;;;;;;;;;;5097291;28;20020;-80
2021/10/02 06:04:52;;;;;;;26.50;9.55;;;;;;;;;;5097082;28;20398;-80
2021/10/02 06:07:18;;;;;;;26.05;11.43;;;;;;;;;;5097221;28;20024;-80
2021/10/02 06:09:44;;;;;;;31.30;16.20;;;;;;;;;;5097542;28;20027;-80
2021/10/02 06:12:10;;;;;;;22.90;9.63;;;;;;;;;;5097369;28;20065;-79
2021/10/02 06:14:36;;;;;;;29.17;10.98;;;;;;;;;;5097263;28;20099;-79
2021/10/02 06:17:02;;;;;;;18.73;9.38;;;;;;;;;;5079281;28;20477;-79
2021/10/02 06:19:28;;;;;;;32.10;9.90;;;;;;;;;;5096546;28;20079;-79
2021/10/02 06:21:54;;;;;;;25.73;9.88;;;;;;;;;;5097203;28;20066;-79
2021/10/02 06:24:20;;;;;;;67.00;41.22;;;;;;;;;;5100820;28;20028;-78
2021/10/02 06:26:46;;;;;;;75.90;41.03;;;;;;;;;;5104593;28;20038;-78
2021/10/02 06:29:13;;;;;;;56.45;25.92;;;;;;;;;;5087068;28;20032;-78
2021/10/02 06:31:39;;;;;;;102.88;57.35;;;;;;;;;;5100135;28;20409;-79
2021/10/02 06:34:05;;;;;;;66.30;38.85;;;;;;;;;;5117429;28;20023;-80
2021/10/02 06:36:31;;;;;;;60.67;34.15;;;;;;;;;;5117568;28;20020;-79
2021/10/02 06:38:59;;;;;;;73.00;44.13;;;;;;;;;;5117178;28;20024;-80
2021/10/02 06:41:25;;;;;;;41.30;22.88;;;;;;;;;;5117314;28;20020;-80
2021/10/02 06:43:52;;;;;;;42.25;23.05;;;;;;;;;;5117401;28;20047;-80
2021/10/02 06:46:18;;;;;;;41.28;23.23;;;;;;;;;;5115323;28;21528;-79
2021/10/02 06:48:44;;;;;;;58.17;34.45;;;;;;;;;;5112961;28;20031;-79
2021/10/02 06:51:10;;;;;;;53.17;26.40;;;;;;;;;;5099075;28;20111;-76
2021/10/02 06:53:36;;;;;;;31.77;20.08;;;;;;;;;;5117135;28;20373;-75
2021/10/02 06:56:02;;;;;;;28.83;17.35;;;;;;;;;;5117144;28;20059;-74
2021/10/02 06:58:28;;;;;;;46.53;28.58;;;;;;;;;;5117103;28;20031;-74
2021/10/02 07:00:54;;;;;;;67.32;41.67;;;;;;;;;;5098834;28;20183;-74
2021/10/02 07:03:20;;;;;;;25.38;12.75;;;;;;;;;;5120528;28;20024;-75
2021/10/02 07:05:46;;;;;;;36.80;17.33;;;;;;;;;;5121356;28;20023;-74
2021/10/02 07:08:14;;;;;;;26.48;11.57;;;;;;;;;;5121090;28;20020;-75
2021/10/02 07:10:40;;;;;;;52.00;25.50;;;;;;;;;;5121053;28;20027;-74
2021/10/02 07:13:06;;;;;;;26.02;11.88;;;;;;;;;;5102539;28;20032;-74
2021/10/02 07:15:32;;;;;;;25.27;13.27;;;;;;;;;;5120647;28;20031;-74
2021/10/02 07:17:58;;;;;;;25.98;14.07;;;;;;;;;;5120763;28;20073;-74
2021/10/02 07:20:28;;;;;;;29.05;13.25;;;;;;;;;;5120520;28;20090;-74
2021/10/02 07:22:54;;;;;;;20.05;9.00;;;;;;;;;;5120733;28;20027;-74
2021/10/02 07:25:23;;;;;;;28.52;10.95;;;;;;;;;;5120854;28;20149;-74
2021/10/02 07:27:50;;;;;;;23.95;8.32;;;;;;;;;;5119936;28;20122;-74
2021/10/02 07:30:16;;;;;;;14.60;7.75;;;;;;;;;;5102372;28;20028;-74
2021/10/02 07:32:42;;;;;;;21.50;9.05;;;;;;;;;;5120560;28;20027;-75
2021/10/02 07:35:09;;;;;;;24.55;9.68;;;;;;;;;;5102500;28;20063;-74
2021/10/02 07:37:35;;;;;;;17.92;7.95;;;;;;;;;;5119876;28;20331;-74
2021/10/02 07:40:02;;;;;;;20.40;7.70;;;;;;;;;;5119931;28;20035;-75
2021/10/02 07:42:29;;;;;;;23.55;9.20;;;;;;;;;;5119508;28;20024;-74
2021/10/02 07:44:58;;;;;;;17.38;7.32;;;;;;;;;;5119707;28;20031;-75
2021/10/02 07:47:24;;;;;;;23.08;8.80;;;;;;;;;;5119667;28;20028;-75
2021/10/02 07:49:51;;;;;;;22.38;8.13;;;;;;;;;;5101955;28;20122;-75
2021/10/02 07:52:19;;;;;;;26.38;7.43;;;;;;;;;;5119436;28;20085;-74
2021/10/02 07:54:46;;;;;;;19.40;8.15;;;;;;;;;;5118998;28;20037;-74
2021/10/02 07:57:12;;;;;;;23.40;10.07;;;;;;;;;;5119884;28;20432;-74
2021/10/02 07:59:38;;;;;;;14.85;8.68;;;;;;;;;;5101662;28;20046;-74
2021/10/02 08:02:06;;;;;;;17.98;10.98;;;;;;;;;;5120008;28;20027;-75
2021/10/02 08:04:33;;;;;;;15.52;7.72;;;;;;;;;;5119886;28;20035;-75
2021/10/02 08:06:59;;;;;;;16.02;7.13;;;;;;;;;;5119931;28;20110;-75
2021/10/02 08:09:28;;;;;;;16.63;7.78;;;;;;;;;;5101689;28;20043;-75
2021/10/02 08:11:54;;;;;;;14.05;6.18;;;;;;;;;;5119909;28;20020;-75
2021/10/02 08:14:20;;;;;;;23.85;6.35;;;;;;;;;;5119352;28;20028;-75
2021/10/02 08:16:47;;;;;;;19.65;6.18;;;;;;;;;;5119599;28;20481;-75
2021/10/02 08:19:14;;;;;;;20.40;6.10;;;;;;;;;;5119554;28;20048;-75
2021/10/02 08:21:41;;;;;;;17.17;5.53;;;;;;;;;;5119836;28;20403;-75
2021/10/02 08:24:07;;;;;;;11.27;5.45;;;;;;;;;;5119650;28;20297;-76
2021/10/02 08:26:33;;;;;;;21.10;5.53;;;;;;;;;;5119598;28;20019;-75
2021/10/02 08:29:02;;;;;;;16.98;5.30;;;;;;;;;;5119598;28;20041;-75
2021/10/02 08:31:28;;;;;;;17.77;5.53;;;;;;;;;;5119340;28;20038;-75
2021/10/02 08:33:54;;;;;;;12.35;5.47;;;;;;;;;;5119640;28;20023;-75
2021/10/02 08:36:20;;;;;;;20.55;5.70;;;;;;;;;;5119328;28;20088;-75
2021/10/02 08:38:47;;;;;;;12.55;5.85;;;;;;;;;;5119337;28;20027;-75
2021/10/02 08:41:15;;;;;;;15.90;5.30;;;;;;;;;;5119231;28;20028;-75
2021/10/02 08:43:42;;;;;;;15.45;6.00;;;;;;;;;;5101081;28;20135;-75
2021/10/02 08:46:11;;;;;;;17.80;4.95;;;;;;;;;;5119213;28;20027;-75
2021/10/02 08:48:37;;;;;;;16.73;5.38;;;;;;;;;;5118977;28;20055;-75
2021/10/02 08:51:04;;;;;;;13.68;4.80;;;;;;;;;;5119061;28;20042;-75
2021/10/02 08:53:31;;;;;;;15.45;5.72;;;;;;;;;;5118909;28;20110;-75
2021/10/02 08:55:58;;;;;;;14.15;5.13;;;;;;;;;;5118788;28;20028;-75
2021/10/02 08:58:24;;;;;;;12.63;5.18;;;;;;;;;;5100879;28;20306;-74
2021/10/02 09:00:50;;;;;;;18.35;5.90;;;;;;;;;;5118767;28;20031;-75
2021/10/02 09:03:19;;;;;;;17.52;5.72;;;;;;;;;;5119001;28;20039;-75
2021/10/02 09:05:45;;;;;;;16.30;5.05;;;;;;;;;;5118575;28;20343;-74
2021/10/02 09:08:11;;;;;;;11.55;5.57;;;;;;;;;;5118836;28;20050;-75
2021/10/02 09:10:37;;;;;;;18.35;5.80;;;;;;;;;;5118878;28;20020;-75
2021/10/02 09:13:04;;;;;;;16.15;5.38;;;;;;;;;;5118623;28;20020;-74
2021/10/02 09:15:30;;;;;;;21.15;5.50;;;;;;;;;;5118499;28;20424;-75
2021/10/02 09:17:56;;;;;;;12.30;5.10;;;;;;;;;;5118534;28;20321;-74
2021/10/02 09:20:23;;;;;;;25.13;5.63;;;;;;;;;;5118176;28;20103;-75
2021/10/02 09:23:06;;;;;;;18.48;5.80;;;;;;;;;;5118458;28;20336;-74
2021/10/02 09:25:33;;;;;;;16.35;5.28;;;;;;;;;;5099627;28;20100;-74
2021/10/02 09:28:06;;;;;;;19.02;5.85;;;;;;;;;;5118250;28;20019;-75
2021/10/02 09:30:32;;;;;;;11.93;5.78;;;;;;;;;;5118078;28;20031;-75
2021/10/02 09:33:05;;;;;;;11.80;4.70;;;;;;;;;;5118399;28;20103;-74
2021/10/02 09:35:35;;;;;;;24.98;5.88;;;;;;;;;;5118206;28;20027;-74
2021/10/02 09:38:01;;;;;;;11.05;5.18;;;;;;;;;;5118272;28;20043;-74
2021/10/02 09:40:28;;;;;;;14.98;5.65;;;;;;;;;;5117543;28;20026;-74
2021/10/02 09:42:54;;;;;;;15.98;4.60;;;;;;;;;;5117943;28;20019;-75
2021/10/02 09:45:22;;;;;;;11.32;5.28;;;;;;;;;;5118095;28;20027;-75
2021/10/02 09:47:52;;;;;;;11.18;5.00;;;;;;;;;;5099911;28;20030;-74
2021/10/02 09:50:23;;;;;;;11.60;5.20;;;;;;;;;;5118166;28;20324;-76
2021/10/02 09:52:56;;;;;;;18.45;5.15;;;;;;;;;;5117825;28;20023;-75
2021/10/02 09:55:24;;;;;;;11.63;5.40;;;;;;;;;;5100060;28;20023;-75
2021/10/02 09:57:52;;;;;;;10.35;5.03;;;;;;;;;;5117812;28;20370;-75
2021/10/02 10:00:19;;;;;;;16.55;5.20;;;;;;;;;;5117925;28;20023;-75
2021/10/02 10:02:46;;;;;;;10.43;5.50;;;;;;;;;;5117865;28;20023;-74
2021/10/02 10:05:13;;;;;;;14.85;5.70;;;;;;;;;;5117822;28;20019;-74
2021/10/02 10:07:40;;;;;;;15.75;6.20;;;;;;;;;;5117299;28;20033;-74
2021/10/02 10:10:11;;;;;;;16.13;5.50;;;;;;;;;;5117686;28;20019;-74
2021/10/02 10:12:38;;;;;;;16.77;4.95;;;;;;;;;;5117661;28;20104;-75
2021/10/02 10:15:04;;;;;;;14.60;4.95;;;;;;;;;;5117802;28;20087;-75
2021/10/02 10:17:32;;;;;;;14.23;5.25;;;;;;;;;;5117386;28;20069;-74
2021/10/02 10:20:05;;;;;;;19.27;4.97;;;;;;;;;;5117293;28;20071;-75
2021/10/02 10:22:32;;;;;;;18.95;5.05;;;;;;;;;;5117565;28;20020;-75
2021/10/02 10:24:59;;;;;;;20.63;6.03;;;;;;;;;;5117355;28;20030;-75
2021/10/02 10:27:34;;;;;;;18.40;5.50;;;;;;;;;;5117425;28;20015;-75
2021/10/02 10:30:05;;;;;;;25.60;4.82;;;;;;;;;;5117644;28;20027;-74
2021/10/02 10:32:31;;;;;;;18.15;5.32;;;;;;;;;;5117459;28;20028;-75
2021/10/02 10:34:57;;;;;;;20.90;5.13;;;;;;;;;;5117685;28;20104;-75
2021/10/02 10:37:23;;;;;;;15.55;4.72;;;;;;;;;;5121359;28;20019;-75
2021/10/02 10:39:57;;;;;;;15.57;4.97;;;;;;;;;;5103365;28;20131;-75
2021/10/02 10:42:25;;;;;;;17.25;5.15;;;;;;;;;;5121582;28;20073;-74
2021/10/02 10:44:52;;;;;;;18.75;4.93;;;;;;;;;;5121557;28;20019;-74
2021/10/02 10:47:18;;;;;;;18.58;5.15;;;;;;;;;;5121491;28;20107;-74
2021/10/02 10:49:45;;;;;;;15.82;5.45;;;;;;;;;;5121664;28;20032;-75
2021/10/02 10:52:15;;;;;;;11.90;4.63;;;;;;;;;;5121263;28;20027;-75
2021/10/02 10:54:42;;;;;;;9.80;3.90;;;;;;;;;;5121205;28;20065;-75
2021/10/02 10:57:28;;;;;;;19.13;5.63;;;;;;;;;;5121107;28;20093;-75
2021/10/02 10:59:54;;;;;;;17.13;4.57;;;;;;;;;;5121055;28;20020;-75
2021/10/02 11:02:39;;;;;;;16.45;4.90;;;;;;;;;;5121314;28;20027;-75
2021/10/02 11:05:05;;;;;;;15.35;5.03;;;;;;;;;;5121123;28;20129;-75
2021/10/02 11:08:04;;;;;;;16.40;4.95;;;;;;;;;;5120905;28;20027;-74
2021/10/02 11:13:12;;;;;;;14.82;5.03;;;;;;;;;;5018585;28;20040;-75
2021/10/02 11:15:39;;;;;;;14.80;5.25;;;;;;;;;;4986032;28;20045;-75
2021/10/02 11:18:05;;;;;;;17.13;6.07;;;;;;;;;;5002182;28;20116;-75
2021/10/02 11:20:33;;;;;;;10.57;5.40;;;;;;;;;;5018240;28;20049;-75
2021/10/02 11:23:17;;;;;;;14.70;4.70;;;;;;;;;;5018545;28;20029;-75
2021/10/02 11:25:43;;;;;;;12.15;4.75;;;;;;;;;;5018378;28;20162;-75
2021/10/02 11:28:22;;;;;;;10.25;4.50;;;;;;;;;;5018317;28;20030;-75
2021/10/02 11:30:49;;;;;;;11.98;5.20;;;;;;;;;;5018420;28;20026;-75
2021/10/02 11:33:34;;;;;;;10.85;4.85;;;;;;;;;;5018196;28;20065;-74
2021/10/02 11:36:01;;;;;;;15.60;5.05;;;;;;;;;;5018277;28;20022;-75
2021/10/02 11:38:37;;;;;;;15.95;5.75;;;;;;;;;;5018067;28;20030;-75
2021/10/02 11:41:22;;;;;;;9.02;4.57;;;;;;;;;;5017996;28;20036;-75
2021/10/02 11:43:54;;;;;;;11.10;4.00;;;;;;;;;;5001178;28;20030;-75
2021/10/02 11:46:24;;;;;;;14.70;8.02;;;;;;;;;;5081288;28;20036;-75
2021/10/02 11:48:50;;;;;;;29.55;12.90;;;;;;;;;;5101337;28;20294;-75
2021/10/02 11:51:18;;;;;;;10.60;4.93;;;;;;;;;;5102174;28;20035;-75
2021/10/02 11:53:46;;;;;;;13.90;6.88;;;;;;;;;;5102309;28;20314;-75
2021/10/02 11:56:18;;;;;;;19.02;9.82;;;;;;;;;;5120320;28;20027;-75
2021/10/02 11:58:44;;;;;;;15.95;9.20;;;;;;;;;;5120117;28;20027;-75
2021/10/02 12:01:18;;;;;;;15.43;7.97;;;;;;;;;;5120033;28;20016;-75
2021/10/02 12:03:44;;;;;;;23.83;13.95;;;;;;;;;;5119889;28;20102;-75
2021/10/02 12:06:10;;;;;;;21.52;11.32;;;;;;;;;;5120146;28;20039;-75
2021/10/02 12:08:39;;;;;;;12.40;7.15;;;;;;;;;;5119995;28;20031;-75
2021/10/02 12:11:08;;;;;;;11.07;5.80;;;;;;;;;;5119898;28;20047;-75
2021/10/02 12:13:37;;;;;;;12.10;5.25;;;;;;;;;;5101696;28;20032;-75
2021/10/02 12:16:03;;;;;;;10.60;5.32;;;;;;;;;;5119874;28;20020;-75
2021/10/02 12:18:42;;;;;;;13.05;5.25;;;;;;;;;;5119438;28;20035;-75
2021/10/02 12:21:11;;;;;;;9.07;4.95;;;;;;;;;;5119842;28;20059;-75
2021/10/02 12:23:49;;;;;;;15.98;5.57;;;;;;;;;;5119728;28;20023;-75
2021/10/02 12:26:16;;;;;;;17.85;5.72;;;;;;;;;;5119566;28;20421;-75
2021/10/02 12:28:42;;;;;;;11.73;5.07;;;;;;;;;;5119514;28;20027;-75
2021/10/02 12:31:08;;;;;;;15.63;5.50;;;;;;;;;;5119520;28;20020;-75
2021/10/02 12:33:34;;;;;;;15.48;5.70;;;;;;;;;;5119428;28;20059;-75
2021/10/02 12:36:00;;;;;;;15.68;6.05;;;;;;;;;;5119331;28;20437;-75
2021/10/02 12:38:38;;;;;;;36.92;26.88;;;;;;;;;;5119259;28;20317;-75
2021/10/02 12:41:04;;;;;;;15.25;5.88;;;;;;;;;;5119369;28;20031;-75
2021/10/02 12:43:34;;;;;;;52.60;34.03;;;;;;;;;;5118060;28;20405;-74
2021/10/02 12:46:01;;;;;;;22.77;15.15;;;;;;;;;;5098948;28;20024;-76
2021/10/02 12:48:27;;;;;;;20.67;11.63;;;;;;;;;;5108626;28;20043;-76
2021/10/02 12:50:54;;;;;;;18.30;8.63;;;;;;;;;;5119004;28;20032;-75
2021/10/02 12:53:21;;;;;;;13.15;6.53;;;;;;;;;;5118965;28;20107;-76
2021/10/02 12:55:47;;;;;;;16.85;6.97;;;;;;;;;;5100891;28;20027;-75
2021/10/02 12:58:17;;;;;;;13.20;5.60;;;;;;;;;;5119010;28;20027;-75
2021/10/02 13:00:43;;;;;;;12.82;5.60;;;;;;;;;;5117895;28;20299;-74
2021/10/02 13:03:13;;;;;;;13.85;5.35;;;;;;;;;;5118805;28;20405;-74
2021/10/02 13:05:40;;;;;;;7.85;4.85;;;;;;;;;;5118969;28;20028;-74
2021/10/02 13:08:07;;;;;;;12.00;4.80;;;;;;;;;;5118934;28;20024;-74
2021/10/02 13:10:33;;;;;;;12.27;4.88;;;;;;;;;;5099597;28;20035;-75
2021/10/02 13:12:59;;;;;;;15.23;5.05;;;;;;;;;;5100463;28;20608;-74
2021/10/02 13:15:27;;;;;;;9.50;4.53;;;;;;;;;;5118563;28;20114;-75
2021/10/02 13:17:59;;;;;;;13.38;4.82;;;;;;;;;;5118772;28;20046;-74
2021/10/02 13:20:25;;;;;;;10.85;4.78;;;;;;;;;;5118115;28;20048;-74
2021/10/02 13:22:51;;;;;;;14.95;5.13;;;;;;;;;;5118207;28;20415;-75
2021/10/02 13:25:22;;;;;;;14.77;4.68;;;;;;;;;;5118540;28;20020;-75
2021/10/02 13:27:48;;;;;;;17.88;4.78;;;;;;;;;;5118255;28;20065;-75
2021/10/02 13:30:17;;;;;;;9.77;4.80;;;;;;;;;;5117901;28;20088;-74
2021/10/02 13:32:53;;;;;;;17.95;4.90;;;;;;;;;;5118413;28;20019;-75
2021/10/02 13:35:21;;;;;;;15.55;4.57;;;;;;;;;;5118184;28;20029;-75
2021/10/02 13:37:48;;;;;;;25.10;5.35;;;;;;;;;;5118088;28;20023;-75
2021/10/02 13:40:43;;;;;;;9.80;5.30;;;;;;;;;;5118077;28;20080;-76
2021/10/02 13:43:10;;;;;;;9.50;4.40;;;;;;;;;;5015867;28;20450;-74
2021/10/02 13:45:39;;;;;;;11.13;4.88;;;;;;;;;;4999423;28;20029;-75
2021/10/02 13:48:09;;;;;;;10.82;5.00;;;;;;;;;;5016017;28;20030;-75
2021/10/02 13:50:40;;;;;;;9.18;4.53;;;;;;;;;;5015781;28;20069;-75
2021/10/02 13:53:06;;;;;;;12.18;5.82;;;;;;;;;;5015958;28;20046;-75
2021/10/02 13:55:33;;;;;;;15.52;5.82;;;;;;;;;;5015776;28;20335;-74
2021/10/02 13:58:00;;;;;;;12.20;5.13;;;;;;;;;;5015803;28;20030;-75
2021/10/02 14:00:27;;;;;;;10.88;4.88;;;;;;;;;;5015639;28;20033;-75
2021/10/02 14:02:53;;;;;;;16.85;6.15;;;;;;;;;;4998655;28;20432;-75
2021/10/02 14:05:20;;;;;;;13.52;6.28;;;;;;;;;;5015750;28;20022;-75
2021/10/02 14:07:47;;;;;;;9.23;5.35;;;;;;;;;;5015590;28;20072;-75
2021/10/02 14:10:15;;;;;;;10.55;5.07;;;;;;;;;;5014980;28;20348;-75
2021/10/02 14:12:41;;;;;;;27.13;5.63;;;;;;;;;;4999066;28;20038;-75
2021/10/02 14:15:08;;;;;;;11.32;5.15;;;;;;;;;;4999024;28;20427;-75
2021/10/02 14:17:34;;;;;;;8.82;5.10;;;;;;;;;;5015428;28;20069;-75
2021/10/02 14:20:00;;;;;;;13.13;5.18;;;;;;;;;;5072017;28;20044;-75
2021/10/02 14:22:27;;;;;;;15.25;5.38;;;;;;;;;;5097144;28;20159;-75
2021/10/02 14:24:54;;;;;;;14.02;4.70;;;;;;;;;;5097268;28;20070;-75
2021/10/02 14:27:20;;;;;;;18.58;7.03;;;;;;;;;;5097036;28;20394;-75
2021/10/02 14:29:46;;;;;;;12.05;5.25;;;;;;;;;;5097246;28;20047;-75
2021/10/02 14:32:12;;;;;;;14.77;6.82;;;;;;;;;;5079270;28;20028;-75
2021/10/02 14:34:38;;;;;;;8.50;5.43;;;;;;;;;;5097118;28;20119;-75
2021/10/02 14:37:05;;;;;;;12.05;5.65;;;;;;;;;;5097087;28;20039;-75
2021/10/02 14:39:31;;;;;;;13.02;5.35;;;;;;;;;;5097224;28;20313;-75
2021/10/02 14:41:57;;;;;;;17.85;5.18;;;;;;;;;;5096966;28;20073;-74
2021/10/02 14:44:24;;;;;;;19.00;5.60;;;;;;;;;;5096937;28;20027;-74
2021/10/02 14:46:52;;;;;;;19.30;8.75;;;;;;;;;;5097074;28;20042;-75
2021/10/02 14:49:18;;;;;;;20.77;10.65;;;;;;;;;;5097036;28;20526;-75
2021/10/02 14:51:49;;;;;;;31.70;13.27;;;;;;;;;;5096861;28;20020;-75
2021/10/02 14:54:18;;;;;;;38.78;15.27;;;;;;;;;;5096767;28;20061;-74
2021/10/02 14:56:44;;;;;;;16.75;9.38;;;;;;;;;;5078610;28;20059;-74
2021/10/02 14:59:11;;;;;;;22.27;7.82;;;;;;;;;;5096846;28;20103;-74
2021/10/02 15:01:37;;;;;;;18.23;7.30;;;;;;;;;;5096772;28;20031;-75
2021/10/02 15:04:03;;;;;;;18.02;7.65;;;;;;;;;;5096924;28;20027;-75
2021/10/02 15:06:30;;;;;;;16.05;6.22;;;;;;;;;;5096758;28;20069;-75
2021/10/02 15:08:56;;;;;;;21.30;7.90;;;;;;;;;;5096929;28;20028;-75
2021/10/02 15:11:22;;;;;;;14.52;7.38;;;;;;;;;;5096604;28;20321;-74
2021/10/02 15:13:48;;;;;;;15.20;5.78;;;;;;;;;;5096705;28;20318;-75
2021/10/02 15:16:14;;;;;;;12.23;5.20;;;;;;;;;;5096650;28;20028;-74
2021/10/02 15:18:40;;;;;;;9.18;5.20;;;;;;;;;;5096398;28;20028;-74
2021/10/02 15:21:08;;;;;;;21.67;5.70;;;;;;;;;;5096469;28;20039;-74
2021/10/02 15:23:40;;;;;;;15.73;5.15;;;;;;;;;;5098632;28;20424;-75
2021/10/02 15:26:07;;;;;;;10.30;5.13;;;;;;;;;;5100392;28;20055;-75
2021/10/02 15:28:37;;;;;;;16.75;6.15;;;;;;;;;;5100283;28;20069;-74